createdAt,value
2022-11-03T03:16:55.811Z,98815.00
2022-11-03T03:19:27.545Z,98814.00
2022-11-03T03:21:55.712Z,98817.00
2022-11-03T03:24:28.668Z,98814.00
2022-11-03T03:26:59.055Z,98809.00
2022-11-03T03:29:28.762Z,98794.00
2022-11-03T03:32:00.526Z,98791.00
2022-11-03T03:34:35.213Z,98794.00
2022-11-03T03:37:04.384Z,98800.00
2022-11-03T03:39:34.210Z,98788.00
2022-11-03T03:42:02.574Z,98795.00
2022-11-03T03:44:30.859Z,98792.00
2022-11-03T03:47:01.758Z,98802.00
2022-11-03T03:49:29.873Z,98804.00
2022-11-03T03:51:57.926Z,98793.00
2022-11-03T03:54:25.994Z,98797.00
2022-11-03T03:56:56.409Z,98796.00
2022-11-03T03:59:24.818Z,98787.00
2022-11-03T04:01:53.030Z,98781.00
2022-11-03T04:04:22.557Z,98781.00
2022-11-03T04:07:12.423Z,98784.00
2022-11-03T04:09:40.461Z,98781.00
2022-11-03T04:12:26.894Z,98792.00
2022-11-03T04:15:12.355Z,98781.00
2022-11-03T04:18:12.674Z,98778.00
2022-11-03T04:20:59.298Z,98785.00
2022-11-03T04:23:27.382Z,98772.00
2022-11-03T04:25:56.127Z,98775.00
2022-11-03T04:28:27.188Z,98765.00
2022-11-03T04:30:58.892Z,98758.00
2022-11-03T04:33:27.211Z,98760.00
2022-11-03T04:35:56.809Z,98761.00
2022-11-03T04:38:25.194Z,98753.00
2022-11-03T04:40:55.472Z,98751.00
2022-11-03T04:43:24.993Z,98763.00
2022-11-03T04:45:53.082Z,98762.00
2022-11-03T04:48:23.122Z,98757.00
2022-11-03T04:50:53.380Z,98754.00
2022-11-03T04:53:23.640Z,98748.00
2022-11-03T04:55:52.662Z,98743.00
2022-11-03T04:58:22.980Z,98744.00
2022-11-03T05:00:51.435Z,98730.00
2022-11-03T05:03:23.316Z,98732.00
2022-11-03T05:05:51.736Z,98734.00
2022-11-03T05:08:20.117Z,98730.00
2022-11-03T05:10:51.144Z,98722.00
2022-11-03T05:13:21.077Z,98714.00
2022-11-03T05:15:49.177Z,98712.00
2022-11-03T05:18:19.438Z,98706.00
2022-11-03T05:20:50.402Z,98703.00
2022-11-03T05:23:19.575Z,98704.00
2022-11-03T05:25:50.059Z,98691.00
2022-11-03T05:28:22.779Z,98682.00
2022-11-03T05:30:50.886Z,98681.00
2022-11-03T05:33:31.939Z,98684.00
2022-11-03T05:36:02.059Z,98682.00
2022-11-03T05:38:31.823Z,98664.00
2022-11-03T05:41:01.361Z,98671.00
2022-11-03T05:43:29.520Z,98664.00
2022-11-03T05:45:59.341Z,98664.00
2022-11-03T05:48:31.385Z,98665.00
2022-11-03T05:51:00.508Z,98670.00
2022-11-03T05:53:31.089Z,98666.00
2022-11-03T05:56:02.365Z,98670.00
2022-11-03T05:58:32.078Z,98659.00
2022-11-03T06:01:02.628Z,98674.00
2022-11-03T06:03:32.001Z,98656.00
2022-11-03T06:06:00.240Z,98659.00
2022-11-03T06:08:30.098Z,98658.00
2022-11-03T06:11:02.794Z,98659.00
2022-11-03T06:13:32.202Z,98666.00
2022-11-03T06:16:02.509Z,98667.00
2022-11-03T06:18:32.200Z,98660.00
2022-11-03T06:21:03.253Z,98662.00
2022-11-03T06:23:34.554Z,98673.00
2022-11-03T06:26:08.086Z,98667.00
2022-11-03T06:28:39.003Z,98672.00
2022-11-03T06:31:07.850Z,98668.00
2022-11-03T06:33:39.359Z,98672.00
2022-11-03T06:36:12.613Z,98667.00
2022-11-03T06:38:40.752Z,98658.00
2022-11-03T06:41:10.681Z,98665.00
2022-11-03T06:43:42.348Z,98662.00
2022-11-03T06:46:14.185Z,98662.00
2022-11-03T06:48:42.211Z,98657.00
2022-11-03T06:51:16.152Z,98655.00
2022-11-03T06:53:44.784Z,98656.00
2022-11-03T06:56:16.240Z,98660.00
2022-11-03T06:58:45.038Z,98643.00
2022-11-03T07:01:15.671Z,98659.00
2022-11-03T07:03:43.903Z,98646.00
2022-11-03T07:06:21.272Z,98644.00
2022-11-03T07:08:50.373Z,98635.00
2022-11-03T07:11:21.126Z,98646.00
2022-11-03T07:13:49.526Z,98643.00
2022-11-03T07:16:19.809Z,98638.00
2022-11-03T07:18:48.679Z,98632.00
2022-11-03T07:21:30.648Z,98628.00
2022-11-03T07:23:58.783Z,98629.00
2022-11-03T07:26:30.328Z,98618.00
2022-11-03T07:28:58.460Z,98612.00
2022-11-03T07:31:27.118Z,98606.00
2022-11-03T07:33:58.692Z,98598.00
2022-11-03T07:36:29.603Z,98599.00
2022-11-03T07:38:57.889Z,98600.00
2022-11-03T07:41:31.076Z,98590.00
2022-11-03T07:44:03.573Z,98592.00
2022-11-03T07:46:31.702Z,98586.00
2022-11-03T07:49:01.305Z,98589.00
2022-11-03T07:51:31.055Z,98588.00
2022-11-03T07:54:02.286Z,98576.00
2022-11-03T07:56:33.559Z,98576.00
2022-11-03T07:59:06.117Z,98573.00
2022-11-03T08:01:37.934Z,98568.00
2022-11-03T08:04:07.480Z,98564.00
2022-11-03T08:06:35.661Z,98568.00
2022-11-03T08:09:03.726Z,98559.00
2022-11-03T08:11:31.967Z,98559.00
2022-11-03T08:14:02.551Z,98550.00
2022-11-03T08:16:36.592Z,98552.00
2022-11-03T08:19:04.658Z,98546.00
2022-11-03T08:21:32.758Z,98548.00
2022-11-03T08:24:01.298Z,98540.00
2022-11-03T08:26:29.580Z,98530.00
2022-11-03T08:28:57.663Z,98535.00
2022-11-03T08:31:25.885Z,98506.00
2022-11-03T08:33:55.436Z,98510.00
2022-11-03T08:36:23.903Z,98504.00
2022-11-03T08:38:52.032Z,98501.00
2022-11-03T08:41:20.129Z,98497.00
2022-11-03T08:43:48.225Z,98485.00
2022-11-03T08:46:18.072Z,98480.00
2022-11-03T08:48:46.719Z,98469.00
2022-11-03T08:51:16.381Z,98472.00
2022-11-03T08:53:44.493Z,98466.00
2022-11-03T08:56:15.049Z,98456.00
2022-11-03T08:58:44.521Z,98454.00
2022-11-03T09:01:12.766Z,98446.00
2022-11-03T09:03:41.184Z,98447.00
2022-11-03T09:06:09.501Z,98437.00
2022-11-03T09:11:27.526Z,98449.00
2022-11-03T09:13:55.615Z,98446.00
2022-11-03T09:16:23.779Z,98438.00
2022-11-03T15:18:21.773Z,97794.00
2022-11-03T15:20:50.439Z,97786.00
2022-11-03T15:26:06.935Z,97772.00
2022-11-03T15:28:35.572Z,97776.00
2022-11-03T15:31:03.663Z,97775.00
2022-11-03T15:33:33.164Z,97769.00
2022-11-03T15:36:01.445Z,97753.00
2022-11-03T15:38:31.271Z,97761.00
2022-11-03T15:41:18.157Z,97756.00
2022-11-03T15:43:47.265Z,97750.00
2022-11-03T15:46:16.402Z,97737.00
2022-11-03T15:48:45.978Z,97736.00
2022-11-03T15:51:14.131Z,97728.00
2022-11-03T15:53:43.740Z,97718.00
2022-11-03T15:56:12.276Z,97727.00
2022-11-03T15:58:40.336Z,97730.00
2022-11-03T16:01:08.811Z,97727.00
2022-11-03T16:03:36.935Z,97732.00
2022-11-03T16:06:09.098Z,97727.00
2022-11-03T16:08:37.343Z,97726.00
2022-11-03T16:11:05.633Z,97718.00
2022-11-03T16:13:34.014Z,97717.00
2022-11-03T16:16:03.148Z,97710.00
2022-11-03T16:18:34.990Z,97697.00
2022-11-03T16:21:03.124Z,97693.00
2022-11-03T16:23:53.637Z,97704.00
2022-11-03T16:26:22.001Z,97695.00
2022-11-03T16:28:50.174Z,97714.00
2022-11-03T16:31:18.304Z,97705.00
2022-11-03T16:33:46.466Z,97698.00
2022-11-03T16:36:14.543Z,97694.00
2022-11-03T16:38:43.983Z,97666.00
2022-11-03T16:41:12.062Z,97674.00
2022-11-03T16:43:42.487Z,97672.00
2022-11-03T16:46:13.876Z,97658.00
2022-11-03T16:48:43.407Z,97659.00
2022-11-03T16:51:11.559Z,97661.00
2022-11-03T16:53:39.602Z,97655.00
2022-11-03T16:56:09.415Z,97640.00
2022-11-03T16:58:39.626Z,97640.00
2022-11-03T17:01:07.770Z,97649.00
2022-11-03T17:03:35.915Z,97657.00
2022-11-03T17:06:04.085Z,97611.00
2022-11-03T17:11:36.766Z,97645.00
2022-11-03T17:14:07.858Z,97641.00
2022-11-03T17:16:35.972Z,97646.00
2022-11-03T17:19:04.336Z,97640.00
2022-11-03T17:21:32.461Z,97627.00
2022-11-03T17:24:00.596Z,97618.00
2022-11-03T17:26:40.387Z,97610.00
2022-11-03T17:29:13.333Z,97602.00
2022-11-03T17:31:41.428Z,97606.00
2022-11-03T17:34:10.154Z,97600.00
2022-11-03T17:36:38.339Z,97601.00
2022-11-03T17:39:06.827Z,97599.00
2022-11-03T17:41:37.253Z,97591.00
2022-11-03T17:44:09.958Z,97579.00
2022-11-03T17:46:38.048Z,97607.00
2022-11-03T17:49:06.084Z,97599.00
2022-11-03T17:51:43.868Z,97605.00
2022-11-03T17:54:16.113Z,97606.00
2022-11-03T17:56:48.719Z,97601.00
2022-11-03T17:59:20.095Z,97594.00
2022-11-03T18:01:48.476Z,97585.00
2022-11-03T18:04:19.707Z,97578.00
2022-11-03T18:06:48.287Z,97575.00
2022-11-03T18:09:17.109Z,97566.00
2022-11-03T18:12:03.883Z,97551.00
2022-11-03T18:14:35.770Z,97547.00
2022-11-03T18:17:05.701Z,97530.00
2022-11-03T18:19:35.613Z,97526.00
2022-11-03T18:22:04.193Z,97527.00
2022-11-03T18:24:32.281Z,97527.00
2022-11-03T18:27:02.005Z,97512.00
2022-11-03T18:29:34.412Z,97520.00
2022-11-03T18:32:03.960Z,97517.00
2022-11-03T18:34:32.270Z,97496.00
2022-11-03T18:37:00.456Z,97490.00
2022-11-03T18:39:31.724Z,97483.00
2022-11-03T18:42:14.094Z,97476.00
2022-11-03T18:44:44.498Z,97480.00
2022-11-03T18:47:15.535Z,97466.00
2022-11-03T18:49:43.704Z,97464.00
2022-11-03T18:52:17.528Z,97455.00
2022-11-03T18:54:46.653Z,97453.00
2022-11-03T18:57:16.072Z,97446.00
2022-11-03T18:59:44.884Z,97451.00
2022-11-03T19:02:16.992Z,97430.00
2022-11-03T19:04:45.632Z,97431.00
2022-11-03T19:07:13.992Z,97431.00
2022-11-03T19:09:42.175Z,97434.00
2022-11-03T19:12:10.533Z,97423.00
2022-11-03T19:14:43.249Z,97425.00
2022-11-03T19:17:22.814Z,97419.00
2022-11-03T19:19:55.557Z,97422.00
2022-11-03T19:22:23.919Z,97410.00
2022-11-03T19:24:55.144Z,97403.00
2022-11-03T19:27:27.817Z,97409.00
2022-11-03T19:29:59.886Z,97414.00
2022-11-03T19:32:29.361Z,97415.00
2022-11-03T19:34:58.337Z,97404.00
2022-11-03T19:37:28.767Z,97428.00
2022-11-03T19:40:00.773Z,97427.00
2022-11-03T19:42:27.801Z,97431.00
2022-11-03T19:44:58.260Z,97434.00
2022-11-03T19:47:32.517Z,97437.00
2022-11-03T19:50:01.572Z,97435.00
2022-11-03T19:52:30.625Z,97417.00
2022-11-03T19:54:58.973Z,97419.00
2022-11-03T19:57:27.029Z,97414.00
2022-11-03T19:59:58.788Z,97420.00
2022-11-03T20:02:30.363Z,97405.00
2022-11-03T20:04:58.484Z,97418.00
2022-11-03T20:26:30.180Z,97390.00
2022-11-03T20:28:58.341Z,97381.00
2022-11-03T20:31:26.596Z,97387.00
2022-11-03T20:33:54.833Z,97382.00
2022-11-03T20:36:22.994Z,97373.00
2022-11-03T20:38:53.059Z,97365.00
2022-11-03T20:41:22.763Z,97361.00
2022-11-03T20:43:58.843Z,97349.00
2022-11-03T20:46:28.406Z,97365.00
2022-11-03T20:48:56.691Z,97427.00
2022-11-03T20:51:26.192Z,97399.00
2022-11-03T20:53:55.677Z,97405.00
2022-11-03T20:56:24.989Z,97416.00
2022-11-03T20:58:54.400Z,97417.00
2022-11-03T21:01:25.439Z,97416.00
2022-11-03T21:03:59.240Z,97410.00
2022-11-03T21:06:28.346Z,97413.00
2022-11-03T21:08:56.490Z,97398.00
2022-11-03T21:11:27.642Z,97407.00
2022-11-03T21:13:58.140Z,97396.00
2022-11-03T21:16:44.172Z,97386.00
